sensor_id;sensor_type;location;lat;lon;timestamp;pressure;altitude;pressure_sealevel;temperature;humidity
57885;BME280;43703;51.060;-0.086;2023-02-15T00:00:21;101234.21;;;3.17;64.84
57885;BME280;43703;51.060;-0.086;2023-02-15T00:02:46;101238.46;;;4.07;63.24
57885;BME280;43703;51.060;-0.086;2023-02-15T00:05:12;101238.50;;;3.59;64.00
57885;BME280;43703;51.060;-0.086;2023-02-15T00:07:38;101236.45;;;3.55;63.53
57885;BME280;43703;51.060;-0.086;2023-02-15T00:10:04;101233.09;;;2.68;66.78
57885;BME280;43703;51.060;-0.086;2023-02-15T00:12:29;101229.49;;;2.59;67.89
57885;BME280;43703;51.060;-0.086;2023-02-15T00:14:54;101221.94;;;2.25;69.51
57885;BME280;43703;51.060;-0.086;2023-02-15T00:17:21;101218.27;;;1.89;71.05
57885;BME280;43703;51.060;-0.086;2023-02-15T00:19:45;101214.08;;;1.58;72.60
57885;BME280;43703;51.060;-0.086;2023-02-15T00:22:11;101206.97;;;2.32;70.13
57885;BME280;43703;51.060;-0.086;2023-02-15T00:24:37;101208.67;;;3.09;68.52
57885;BME280;43703;51.060;-0.086;2023-02-15T00:27:02;101200.59;;;3.31;66.26
57885;BME280;43703;51.060;-0.086;2023-02-15T00:29:27;101195.89;;;2.89;67.41
57885;BME280;43703;51.060;-0.086;2023-02-15T00:31:52;101189.34;;;2.51;68.86
57885;BME280;43703;51.060;-0.086;2023-02-15T00:34:20;101186.98;;;2.21;70.30
57885;BME280;43703;51.060;-0.086;2023-02-15T00:36:44;101179.63;;;2.29;70.93
57885;BME280;43703;51.060;-0.086;2023-02-15T00:39:09;101180.46;;;2.36;69.46
57885;BME280;43703;51.060;-0.086;2023-02-15T00:41:34;101181.60;;;2.38;69.79
57885;BME280;43703;51.060;-0.086;2023-02-15T00:43:59;101181.60;;;3.04;68.03
57885;BME280;43703;51.060;-0.086;2023-02-15T00:46:24;101189.16;;;2.23;70.67
57885;BME280;43703;51.060;-0.086;2023-02-15T00:48:50;101185.67;;;3.60;67.59
57885;BME280;43703;51.060;-0.086;2023-02-15T00:51:15;101180.70;;;3.18;67.52
57885;BME280;43703;51.060;-0.086;2023-02-15T00:53:40;101179.68;;;2.32;72.22
57885;BME280;43703;51.060;-0.086;2023-02-15T00:56:06;101177.99;;;2.94;71.15
57885;BME280;43703;51.060;-0.086;2023-02-15T00:58:31;101177.42;;;2.02;73.55
57885;BME280;43703;51.060;-0.086;2023-02-15T01:01:03;101168.98;;;2.90;72.52
57885;BME280;43703;51.060;-0.086;2023-02-15T01:03:22;101175.37;;;2.33;73.96
57885;BME280;43703;51.060;-0.086;2023-02-15T01:05:49;101170.69;;;2.90;72.37
57885;BME280;43703;51.060;-0.086;2023-02-15T01:08:13;101173.84;;;3.10;70.65
57885;BME280;43703;51.060;-0.086;2023-02-15T01:10:39;101171.69;;;2.68;72.77
57885;BME280;43703;51.060;-0.086;2023-02-15T01:13:04;101169.35;;;3.29;71.57
57885;BME280;43703;51.060;-0.086;2023-02-15T01:15:29;101167.58;;;1.96;77.19
57885;BME280;43703;51.060;-0.086;2023-02-15T01:17:54;101160.24;;;3.90;70.94
57885;BME280;43703;51.060;-0.086;2023-02-15T01:20:21;101163.29;;;4.42;68.05
57885;BME280;43703;51.060;-0.086;2023-02-15T01:22:45;101158.36;;;4.65;68.33
57885;BME280;43703;51.060;-0.086;2023-02-15T01:25:11;101151.59;;;4.78;66.67
57885;BME280;43703;51.060;-0.086;2023-02-15T01:27:36;101143.37;;;4.89;66.92
57885;BME280;43703;51.060;-0.086;2023-02-15T01:30:01;101138.83;;;4.80;67.30
57885;BME280;43703;51.060;-0.086;2023-02-15T01:32:26;101132.10;;;5.10;65.78
57885;BME280;43703;51.060;-0.086;2023-02-15T01:34:52;101126.81;;;5.19;66.62
57885;BME280;43703;51.060;-0.086;2023-02-15T01:37:17;101124.72;;;5.33;65.86
57885;BME280;43703;51.060;-0.086;2023-02-15T01:39:43;101123.56;;;4.34;67.99
57885;BME280;43703;51.060;-0.086;2023-02-15T01:42:10;101126.75;;;5.43;65.70
57885;BME280;43703;51.060;-0.086;2023-02-15T01:46:59;101118.33;;;5.10;67.57
57885;BME280;43703;51.060;-0.086;2023-02-15T01:49:25;101115.65;;;5.09;67.31
57885;BME280;43703;51.060;-0.086;2023-02-15T01:51:50;101110.37;;;4.80;68.81
57885;BME280;43703;51.060;-0.086;2023-02-15T01:54:20;101104.54;;;3.25;73.41
57885;BME280;43703;51.060;-0.086;2023-02-15T01:56:41;101106.94;;;4.30;71.07
57885;BME280;43703;51.060;-0.086;2023-02-15T01:59:09;101111.77;;;4.60;69.98
57885;BME280;43703;51.060;-0.086;2023-02-15T02:01:32;101109.23;;;4.66;69.54
57885;BME280;43703;51.060;-0.086;2023-02-15T02:04:00;101100.42;;;5.03;68.72
57885;BME280;43703;51.060;-0.086;2023-02-15T02:06:23;101098.00;;;3.44;74.23
57885;BME280;43703;51.060;-0.086;2023-02-15T02:08:48;101094.83;;;4.67;70.23
57885;BME280;43703;51.060;-0.086;2023-02-15T02:11:14;101093.89;;;4.47;70.42
57885;BME280;43703;51.060;-0.086;2023-02-15T02:13:39;101093.27;;;5.38;68.48
57885;BME280;43703;51.060;-0.086;2023-02-15T02:16:10;101092.09;;;5.30;67.93
57885;BME280;43703;51.060;-0.086;2023-02-15T02:18:40;101098.11;;;3.79;71.95
57885;BME280;43703;51.060;-0.086;2023-02-15T02:21:05;101097.08;;;4.55;71.41
57885;BME280;43703;51.060;-0.086;2023-02-15T02:23:28;101094.56;;;4.51;71.12
57885;BME280;43703;51.060;-0.086;2023-02-15T02:28:26;101089.12;;;3.99;73.70
57885;BME280;43703;51.060;-0.086;2023-02-15T02:30:49;101090.40;;;4.32;71.88
57885;BME280;43703;51.060;-0.086;2023-02-15T02:35:35;101084.82;;;4.25;71.85
57885;BME280;43703;51.060;-0.086;2023-02-15T02:38:01;101082.40;;;4.71;69.74
57885;BME280;43703;51.060;-0.086;2023-02-15T02:40:24;101082.50;;;4.96;68.45
57885;BME280;43703;51.060;-0.086;2023-02-15T02:42:49;101078.61;;;5.02;67.90
57885;BME280;43703;51.060;-0.086;2023-02-15T02:45:15;101076.88;;;4.73;68.40
57885;BME280;43703;51.060;-0.086;2023-02-15T02:47:39;101074.08;;;4.20;70.92
57885;BME280;43703;51.060;-0.086;2023-02-15T02:50:03;101073.72;;;4.29;70.96
57885;BME280;43703;51.060;-0.086;2023-02-15T02:52:34;101073.79;;;4.08;71.35
57885;BME280;43703;51.060;-0.086;2023-02-15T02:54:51;101068.59;;;4.17;71.51
57885;BME280;43703;51.060;-0.086;2023-02-15T02:57:16;101068.08;;;4.28;71.23
57885;BME280;43703;51.060;-0.086;2023-02-15T02:59:45;101066.51;;;2.97;73.91
57885;BME280;43703;51.060;-0.086;2023-02-15T03:02:10;101059.13;;;3.54;73.05
57885;BME280;43703;51.060;-0.086;2023-02-15T03:04:35;101054.96;;;4.25;71.08
57885;BME280;43703;51.060;-0.086;2023-02-15T03:07:00;101052.39;;;3.88;72.28
57885;BME280;43703;51.060;-0.086;2023-02-15T03:09:26;101050.99;;;4.57;71.01
57885;BME280;43703;51.060;-0.086;2023-02-15T03:11:49;101043.39;;;3.67;73.16
57885;BME280;43703;51.060;-0.086;2023-02-15T03:14:16;101046.18;;;3.98;71.32
57885;BME280;43703;51.060;-0.086;2023-02-15T03:16:41;101041.04;;;4.26;69.81
57885;BME280;43703;51.060;-0.086;2023-02-15T03:19:08;101040.87;;;4.72;68.85
57885;BME280;43703;51.060;-0.086;2023-02-15T03:21:33;101040.54;;;5.03;68.19
57885;BME280;43703;51.060;-0.086;2023-02-15T03:24:00;101039.38;;;4.70;68.41
57885;BME280;43703;51.060;-0.086;2023-02-15T03:26:23;101035.53;;;4.12;70.53
57885;BME280;43703;51.060;-0.086;2023-02-15T03:28:49;101034.59;;;3.13;72.58
57885;BME280;43703;51.060;-0.086;2023-02-15T03:31:14;101032.45;;;4.41;69.63
57885;BME280;43703;51.060;-0.086;2023-02-15T03:33:42;101027.47;;;4.75;68.98
57885;BME280;43703;51.060;-0.086;2023-02-15T03:36:09;101024.28;;;3.08;73.31
57885;BME280;43703;51.060;-0.086;2023-02-15T03:38:33;101023.25;;;3.74;71.57
57885;BME280;43703;51.060;-0.086;2023-02-15T03:40:56;101019.56;;;3.60;73.10
57885;BME280;43703;51.060;-0.086;2023-02-15T03:43:24;101017.16;;;3.38;72.07
57885;BME280;43703;51.060;-0.086;2023-02-15T03:45:47;101017.36;;;4.20;70.45
57885;BME280;43703;51.060;-0.086;2023-02-15T03:48:10;101020.39;;;3.79;71.05
57885;BME280;43703;51.060;-0.086;2023-02-15T03:50:37;101021.22;;;3.86;70.92
57885;BME280;43703;51.060;-0.086;2023-02-15T03:53:03;101023.39;;;3.76;71.06
57885;BME280;43703;51.060;-0.086;2023-02-15T03:55:27;101021.77;;;4.63;69.42
57885;BME280;43703;51.060;-0.086;2023-02-15T03:57:52;101016.88;;;3.95;71.29
57885;BME280;43703;51.060;-0.086;2023-02-15T04:00:21;101014.30;;;3.86;71.28
57885;BME280;43703;51.060;-0.086;2023-02-15T04:02:52;101008.18;;;4.12;69.98
57885;BME280;43703;51.060;-0.086;2023-02-15T04:05:08;101008.44;;;3.51;70.98
57885;BME280;43703;51.060;-0.086;2023-02-15T04:07:34;101006.49;;;3.55;71.61
57885;BME280;43703;51.060;-0.086;2023-02-15T04:09:59;101002.21;;;3.20;71.96
57885;BME280;43703;51.060;-0.086;2023-02-15T04:12:25;101000.03;;;3.83;71.31
57885;BME280;43703;51.060;-0.086;2023-02-15T04:14:50;100992.62;;;3.80;70.56
57885;BME280;43703;51.060;-0.086;2023-02-15T04:17:15;100990.76;;;3.94;70.10
57885;BME280;43703;51.060;-0.086;2023-02-15T04:19:41;100989.89;;;3.43;71.23
57885;BME280;43703;51.060;-0.086;2023-02-15T04:22:07;100989.19;;;2.44;74.20
57885;BME280;43703;51.060;-0.086;2023-02-15T04:24:32;100987.59;;;3.71;71.19
57885;BME280;43703;51.060;-0.086;2023-02-15T04:26:58;100985.68;;;3.72;70.74
57885;BME280;43703;51.060;-0.086;2023-02-15T04:29:24;100990.25;;;3.48;71.06
57885;BME280;43703;51.060;-0.086;2023-02-15T04:31:48;100991.91;;;3.64;71.64
57885;BME280;43703;51.060;-0.086;2023-02-15T04:34:14;100992.64;;;4.01;70.57
57885;BME280;43703;51.060;-0.086;2023-02-15T04:36:39;100991.32;;;3.20;71.75
57885;BME280;43703;51.060;-0.086;2023-02-15T04:39:05;100990.25;;;3.27;71.24
57885;BME280;43703;51.060;-0.086;2023-02-15T04:41:30;100988.32;;;4.41;69.44
57885;BME280;43703;51.060;-0.086;2023-02-15T04:43:55;100985.49;;;4.26;69.43
57885;BME280;43703;51.060;-0.086;2023-02-15T04:46:20;100992.89;;;3.92;68.99
57885;BME280;43703;51.060;-0.086;2023-02-15T04:48:46;100990.84;;;4.42;69.07
57885;BME280;43703;51.060;-0.086;2023-02-15T04:51:11;100986.95;;;4.66;68.28
57885;BME280;43703;51.060;-0.086;2023-02-15T04:53:37;100988.37;;;3.73;70.52
57885;BME280;43703;51.060;-0.086;2023-02-15T04:56:03;100984.03;;;3.12;71.71
57885;BME280;43703;51.060;-0.086;2023-02-15T04:58:28;100983.56;;;3.92;70.51
57885;BME280;43703;51.060;-0.086;2023-02-15T05:00:55;100980.92;;;3.91;70.38
57885;BME280;43703;51.060;-0.086;2023-02-15T05:03:19;100981.60;;;3.62;70.55
57885;BME280;43703;51.060;-0.086;2023-02-15T05:05:44;100981.76;;;3.65;71.06
57885;BME280;43703;51.060;-0.086;2023-02-15T05:08:10;100980.10;;;4.36;69.53
57885;BME280;43703;51.060;-0.086;2023-02-15T05:10:35;100974.08;;;4.81;68.23
57885;BME280;43703;51.060;-0.086;2023-02-15T05:13:01;100972.66;;;4.94;68.10
57885;BME280;43703;51.060;-0.086;2023-02-15T05:15:26;100967.35;;;4.63;67.91
57885;BME280;43703;51.060;-0.086;2023-02-15T05:17:51;100968.12;;;3.64;70.88
57885;BME280;43703;51.060;-0.086;2023-02-15T05:20:18;100965.97;;;4.01;70.84
57885;BME280;43703;51.060;-0.086;2023-02-15T05:22:42;100963.81;;;3.42;71.58
57885;BME280;43703;51.060;-0.086;2023-02-15T05:25:08;100955.85;;;3.09;72.67
57885;BME280;43703;51.060;-0.086;2023-02-15T05:27:33;100956.74;;;3.13;74.21
57885;BME280;43703;51.060;-0.086;2023-02-15T05:29:59;100956.29;;;2.87;73.52
57885;BME280;43703;51.060;-0.086;2023-02-15T05:32:24;100953.08;;;3.06;72.97
57885;BME280;43703;51.060;-0.086;2023-02-15T05:34:49;100951.35;;;2.70;74.00
57885;BME280;43703;51.060;-0.086;2023-02-15T05:37:15;100949.07;;;2.98;73.00
57885;BME280;43703;51.060;-0.086;2023-02-15T05:39:40;100948.43;;;3.71;71.58
57885;BME280;43703;51.060;-0.086;2023-02-15T05:42:06;100946.47;;;3.70;73.02
57885;BME280;43703;51.060;-0.086;2023-02-15T05:44:31;100947.97;;;3.34;72.18
57885;BME280;43703;51.060;-0.086;2023-02-15T05:46:57;100947.32;;;2.86;74.85
57885;BME280;43703;51.060;-0.086;2023-02-15T05:49:22;100942.89;;;3.53;72.37
57885;BME280;43703;51.060;-0.086;2023-02-15T05:51:48;100947.17;;;3.92;71.27
57885;BME280;43703;51.060;-0.086;2023-02-15T05:54:14;100948.66;;;4.20;70.30
57885;BME280;43703;51.060;-0.086;2023-02-15T05:56:39;100944.53;;;4.32;70.29
57885;BME280;43703;51.060;-0.086;2023-02-15T05:59:04;100944.89;;;3.70;70.93
57885;BME280;43703;51.060;-0.086;2023-02-15T06:01:29;100941.00;;;2.74;73.10
57885;BME280;43703;51.060;-0.086;2023-02-15T06:03:55;100942.72;;;3.78;71.74
57885;BME280;43703;51.060;-0.086;2023-02-15T06:06:20;100939.89;;;4.69;68.48
57885;BME280;43703;51.060;-0.086;2023-02-15T06:08:45;100944.54;;;4.35;69.73
57885;BME280;43703;51.060;-0.086;2023-02-15T06:11:11;100948.73;;;4.70;68.69
57885;BME280;43703;51.060;-0.086;2023-02-15T06:13:36;100950.89;;;4.28;69.03
57885;BME280;43703;51.060;-0.086;2023-02-15T06:16:02;100949.50;;;3.87;70.50
57885;BME280;43703;51.060;-0.086;2023-02-15T06:18:27;100940.11;;;3.38;71.93
57885;BME280;43703;51.060;-0.086;2023-02-15T06:20:53;100944.03;;;3.41;73.23
57885;BME280;43703;51.060;-0.086;2023-02-15T06:23:18;100950.68;;;4.09;71.13
57885;BME280;43703;51.060;-0.086;2023-02-15T06:25:45;100952.42;;;4.29;70.31
57885;BME280;43703;51.060;-0.086;2023-02-15T06:28:09;100955.90;;;3.43;73.71
57885;BME280;43703;51.060;-0.086;2023-02-15T06:30:35;100957.56;;;4.07;70.86
57885;BME280;43703;51.060;-0.086;2023-02-15T06:33:01;100943.66;;;4.60;69.82
57885;BME280;43703;51.060;-0.086;2023-02-15T06:35:26;100943.12;;;4.14;70.92
57885;BME280;43703;51.060;-0.086;2023-02-15T06:37:51;100942.14;;;4.59;69.10
57885;BME280;43703;51.060;-0.086;2023-02-15T06:40:17;100950.34;;;4.49;69.55
57885;BME280;43703;51.060;-0.086;2023-02-15T06:42:43;100951.23;;;3.89;70.65
57885;BME280;43703;51.060;-0.086;2023-02-15T06:45:09;100941.24;;;4.39;70.83
57885;BME280;43703;51.060;-0.086;2023-02-15T06:47:35;100937.72;;;4.41;71.04
57885;BME280;43703;51.060;-0.086;2023-02-15T06:50:00;100947.71;;;4.74;69.12
57885;BME280;43703;51.060;-0.086;2023-02-15T06:52:26;100949.09;;;3.91;70.16
57885;BME280;43703;51.060;-0.086;2023-02-15T06:54:51;100942.24;;;4.67;69.19
57885;BME280;43703;51.060;-0.086;2023-02-15T06:57:17;100950.07;;;4.41;70.21
57885;BME280;43703;51.060;-0.086;2023-02-15T06:59:43;100945.38;;;5.36;67.76
57885;BME280;43703;51.060;-0.086;2023-02-15T07:02:09;100948.62;;;4.83;68.09
57885;BME280;43703;51.060;-0.086;2023-02-15T07:04:34;100945.68;;;5.23;66.80
57885;BME280;43703;51.060;-0.086;2023-02-15T07:07:00;100949.46;;;4.83;68.36
57885;BME280;43703;51.060;-0.086;2023-02-15T07:09:26;100955.64;;;4.81;68.22
57885;BME280;43703;51.060;-0.086;2023-02-15T07:11:52;100955.62;;;3.52;70.92
57885;BME280;43703;51.060;-0.086;2023-02-15T07:14:17;100953.40;;;4.17;70.33
57885;BME280;43703;51.060;-0.086;2023-02-15T07:16:42;100955.59;;;4.24;71.21
57885;BME280;43703;51.060;-0.086;2023-02-15T07:19:08;100957.99;;;4.90;69.91
57885;BME280;43703;51.060;-0.086;2023-02-15T07:21:33;100959.39;;;4.74;69.74
57885;BME280;43703;51.060;-0.086;2023-02-15T07:23:59;100967.09;;;4.85;69.39
57885;BME280;43703;51.060;-0.086;2023-02-15T07:26:25;100976.35;;;4.32;69.94
57885;BME280;43703;51.060;-0.086;2023-02-15T07:28:50;100974.78;;;4.71;69.44
57885;BME280;43703;51.060;-0.086;2023-02-15T07:31:15;100971.92;;;4.64;69.59
57885;BME280;43703;51.060;-0.086;2023-02-15T07:33:41;100965.38;;;3.64;72.37
57885;BME280;43703;51.060;-0.086;2023-02-15T07:36:07;100969.72;;;4.49;71.47
57885;BME280;43703;51.060;-0.086;2023-02-15T07:38:33;100977.53;;;4.55;70.43
57885;BME280;43703;51.060;-0.086;2023-02-15T07:40:58;100984.84;;;4.81;70.15
57885;BME280;43703;51.060;-0.086;2023-02-15T07:43:23;100981.73;;;4.78;69.38
57885;BME280;43703;51.060;-0.086;2023-02-15T07:45:48;100980.69;;;4.34;71.22
57885;BME280;43703;51.060;-0.086;2023-02-15T07:48:13;100984.83;;;5.31;68.30
57885;BME280;43703;51.060;-0.086;2023-02-15T07:50:38;100987.86;;;5.01;69.26
57885;BME280;43703;51.060;-0.086;2023-02-15T07:53:04;100983.43;;;5.25;68.02
57885;BME280;43703;51.060;-0.086;2023-02-15T07:55:29;100983.62;;;4.92;69.28
57885;BME280;43703;51.060;-0.086;2023-02-15T07:57:54;100984.71;;;4.42;70.48
57885;BME280;43703;51.060;-0.086;2023-02-15T08:00:21;100982.47;;;4.60;71.32
57885;BME280;43703;51.060;-0.086;2023-02-15T08:02:48;100984.70;;;3.29;73.91
57885;BME280;43703;51.060;-0.086;2023-02-15T08:05:10;100985.43;;;4.64;72.34
57885;BME280;43703;51.060;-0.086;2023-02-15T08:07:36;100984.10;;;4.98;70.53
57885;BME280;43703;51.060;-0.086;2023-02-15T08:10:02;100982.18;;;5.33;69.37
57885;BME280;43703;51.060;-0.086;2023-02-15T08:12:28;100982.00;;;4.76;71.50
57885;BME280;43703;51.060;-0.086;2023-02-15T08:14:53;100984.88;;;4.70;71.17
57885;BME280;43703;51.060;-0.086;2023-02-15T08:17:18;100990.70;;;4.31;70.55
57885;BME280;43703;51.060;-0.086;2023-02-15T08:19:43;100992.31;;;5.00;71.40
57885;BME280;43703;51.060;-0.086;2023-02-15T08:22:12;100992.88;;;5.30;68.81
57885;BME280;43703;51.060;-0.086;2023-02-15T08:24:36;100992.54;;;6.31;66.79
57885;BME280;43703;51.060;-0.086;2023-02-15T08:27:02;100990.33;;;6.43;66.73
57885;BME280;43703;51.060;-0.086;2023-02-15T08:29:27;100986.44;;;6.65;66.81
57885;BME280;43703;51.060;-0.086;2023-02-15T08:31:54;100984.38;;;6.45;66.79
57885;BME280;43703;51.060;-0.086;2023-02-15T08:34:19;100980.18;;;6.27;68.21
57885;BME280;43703;51.060;-0.086;2023-02-15T08:36:42;100984.34;;;5.43;68.45
57885;BME280;43703;51.060;-0.086;2023-02-15T08:39:08;100985.20;;;6.30;67.12
57885;BME280;43703;51.060;-0.086;2023-02-15T08:41:34;100979.61;;;5.87;69.29
57885;BME280;43703;51.060;-0.086;2023-02-15T08:44:00;100979.93;;;5.97;69.64
57885;BME280;43703;51.060;-0.086;2023-02-15T08:46:29;100981.23;;;6.13;70.06
57885;BME280;43703;51.060;-0.086;2023-02-15T08:48:50;100983.91;;;6.10;67.53
57885;BME280;43703;51.060;-0.086;2023-02-15T08:51:18;100980.77;;;6.11;69.18
57885;BME280;43703;51.060;-0.086;2023-02-15T08:53:43;100982.65;;;6.14;68.38
57885;BME280;43703;51.060;-0.086;2023-02-15T08:56:07;100980.03;;;7.31;69.61
57885;BME280;43703;51.060;-0.086;2023-02-15T08:58:32;100979.74;;;7.08;69.17
57885;BME280;43703;51.060;-0.086;2023-02-15T09:00:58;100980.25;;;5.12;69.51
57885;BME280;43703;51.060;-0.086;2023-02-15T09:03:23;100979.78;;;6.92;68.95
57885;BME280;43703;51.060;-0.086;2023-02-15T09:05:48;100980.35;;;6.92;68.93
57885;BME280;43703;51.060;-0.086;2023-02-15T09:08:13;100981.00;;;8.06;70.07
57885;BME280;43703;51.060;-0.086;2023-02-15T09:10:39;100976.80;;;8.22;70.24
57885;BME280;43703;51.060;-0.086;2023-02-15T09:13:04;100973.27;;;9.85;70.12
57885;BME280;43703;51.060;-0.086;2023-02-15T09:15:30;100971.73;;;10.22;67.07
57885;BME280;43703;51.060;-0.086;2023-02-15T09:17:55;100977.40;;;8.17;61.73
57885;BME280;43703;51.060;-0.086;2023-02-15T09:20:21;100972.94;;;10.10;61.17
57885;BME280;43703;51.060;-0.086;2023-02-15T09:22:46;100967.13;;;9.41;58.64
57885;BME280;43703;51.060;-0.086;2023-02-15T09:25:11;100970.31;;;9.14;60.39
57885;BME280;43703;51.060;-0.086;2023-02-15T09:27:36;100965.20;;;12.08;62.28
57885;BME280;43703;51.060;-0.086;2023-02-15T09:30:02;100963.97;;;12.36;54.73
57885;BME280;43703;51.060;-0.086;2023-02-15T09:32:27;100962.65;;;13.40;54.55
57885;BME280;43703;51.060;-0.086;2023-02-15T09:34:53;100959.58;;;11.81;57.10
57885;BME280;43703;51.060;-0.086;2023-02-15T09:37:18;100961.03;;;12.15;51.14
57885;BME280;43703;51.060;-0.086;2023-02-15T09:39:44;100962.73;;;10.36;55.73
57885;BME280;43703;51.060;-0.086;2023-02-15T09:47:14;100970.03;;;13.95;50.78
57885;BME280;43703;51.060;-0.086;2023-02-15T09:49:30;100969.43;;;14.86;48.24
57885;BME280;43703;51.060;-0.086;2023-02-15T09:51:59;100965.72;;;14.55;44.04
57885;BME280;43703;51.060;-0.086;2023-02-15T09:54:24;100965.30;;;12.64;47.71
57885;BME280;43703;51.060;-0.086;2023-02-15T09:56:48;100967.02;;;14.41;47.17
57885;BME280;43703;51.060;-0.086;2023-02-15T09:59:14;100966.69;;;13.55;46.10
57885;BME280;43703;51.060;-0.086;2023-02-15T10:01:37;100967.61;;;13.35;48.42
57885;BME280;43703;51.060;-0.086;2023-02-15T10:04:09;100969.09;;;13.40;47.08
57885;BME280;43703;51.060;-0.086;2023-02-15T10:06:32;100969.20;;;13.72;48.71
57885;BME280;43703;51.060;-0.086;2023-02-15T10:11:17;100964.78;;;16.16;43.81
57885;BME280;43703;51.060;-0.086;2023-02-15T10:13:45;100970.55;;;13.02;45.15
57885;BME280;43703;51.060;-0.086;2023-02-15T10:16:14;100975.84;;;12.93;47.93
57885;BME280;43703;51.060;-0.086;2023-02-15T10:18:43;100972.83;;;14.95;46.29
57885;BME280;43703;51.060;-0.086;2023-02-15T10:21:00;100970.71;;;17.01;41.39
57885;BME280;43703;51.060;-0.086;2023-02-15T10:23:32;100959.24;;;17.33;37.94
57885;BME280;43703;51.060;-0.086;2023-02-15T10:25:51;100959.01;;;14.97;41.54
57885;BME280;43703;51.060;-0.086;2023-02-15T10:28:16;100957.48;;;16.38;40.65
57885;BME280;43703;51.060;-0.086;2023-02-15T10:30:42;100963.51;;;15.18;40.59
57885;BME280;43703;51.060;-0.086;2023-02-15T10:33:04;100967.65;;;15.01;42.41
57885;BME280;43703;51.060;-0.086;2023-02-15T10:35:36;100973.73;;;15.52;41.82
57885;BME280;43703;51.060;-0.086;2023-02-15T10:40:26;100969.90;;;16.82;39.13
57885;BME280;43703;51.060;-0.086;2023-02-15T10:43:02;100973.71;;;16.04;40.79
57885;BME280;43703;51.060;-0.086;2023-02-15T10:45:20;100971.46;;;15.18;41.09
57885;BME280;43703;51.060;-0.086;2023-02-15T10:47:48;100965.48;;;14.12;42.59
57885;BME280;43703;51.060;-0.086;2023-02-15T10:50:17;100965.82;;;15.02;43.46
57885;BME280;43703;51.060;-0.086;2023-02-15T10:52:37;100967.18;;;13.94;43.96
57885;BME280;43703;51.060;-0.086;2023-02-15T10:55:00;100966.26;;;13.55;44.82
57885;BME280;43703;51.060;-0.086;2023-02-15T10:57:26;100962.85;;;14.65;42.11
57885;BME280;43703;51.060;-0.086;2023-02-15T10:59:56;100966.96;;;13.41;43.93
57885;BME280;43703;51.060;-0.086;2023-02-15T11:02:19;100966.78;;;13.14;44.50
57885;BME280;43703;51.060;-0.086;2023-02-15T11:04:45;100965.97;;;11.39;49.53
57885;BME280;43703;51.060;-0.086;2023-02-15T11:07:05;100957.85;;;13.29;46.25
57885;BME280;43703;51.060;-0.086;2023-02-15T11:09:33;100966.23;;;10.85;52.30
57885;BME280;43703;51.060;-0.086;2023-02-15T11:11:54;100965.05;;;11.61;50.71
57885;BME280;43703;51.060;-0.086;2023-02-15T11:14:22;100960.35;;;11.66;49.29
57885;BME280;43703;51.060;-0.086;2023-02-15T11:16:46;100956.89;;;10.87;51.63
57885;BME280;43703;51.060;-0.086;2023-02-15T11:19:12;100958.24;;;12.07;48.86
57885;BME280;43703;51.060;-0.086;2023-02-15T11:21:37;100956.19;;;11.65;48.75
57885;BME280;43703;51.060;-0.086;2023-02-15T11:23:59;100962.88;;;11.09;49.80
57885;BME280;43703;51.060;-0.086;2023-02-15T11:26:30;100964.71;;;11.53;49.01
57885;BME280;43703;51.060;-0.086;2023-02-15T11:28:54;100962.72;;;10.84;49.56
57885;BME280;43703;51.060;-0.086;2023-02-15T11:31:18;100959.18;;;10.69;51.07
57885;BME280;43703;51.060;-0.086;2023-02-15T11:33:44;100958.24;;;12.60;48.16
57885;BME280;43703;51.060;-0.086;2023-02-15T11:36:09;100954.71;;;11.57;48.23
57885;BME280;43703;51.060;-0.086;2023-02-15T11:38:32;100944.10;;;11.45;49.22
57885;BME280;43703;51.060;-0.086;2023-02-15T11:40:59;100939.96;;;12.44;45.26
57885;BME280;43703;51.060;-0.086;2023-02-15T11:43:26;100936.58;;;11.02;48.51
57885;BME280;43703;51.060;-0.086;2023-02-15T11:45:47;100931.01;;;12.53;44.90
57885;BME280;43703;51.060;-0.086;2023-02-15T11:48:13;100924.52;;;12.62;47.31
57885;BME280;43703;51.060;-0.086;2023-02-15T11:50:38;100919.28;;;11.53;46.57
57885;BME280;43703;51.060;-0.086;2023-02-15T11:53:06;100910.29;;;11.92;47.02
57885;BME280;43703;51.060;-0.086;2023-02-15T11:55:28;100909.58;;;13.44;44.22
57885;BME280;43703;51.060;-0.086;2023-02-15T11:57:56;100913.28;;;11.94;48.75
57885;BME280;43703;51.060;-0.086;2023-02-15T12:00:27;100906.69;;;13.04;46.05
57885;BME280;43703;51.060;-0.086;2023-02-15T12:02:46;100905.97;;;14.12;43.47
57885;BME280;43703;51.060;-0.086;2023-02-15T12:05:13;100901.09;;;13.94;42.79
57885;BME280;43703;51.060;-0.086;2023-02-15T12:07:37;100906.58;;;15.19;40.48
57885;BME280;43703;51.060;-0.086;2023-02-15T12:10:04;100913.21;;;15.24;40.74
57885;BME280;43703;51.060;-0.086;2023-02-15T12:12:28;100910.23;;;15.69;39.58
57885;BME280;43703;51.060;-0.086;2023-02-15T12:14:52;100913.00;;;15.22;40.03
57885;BME280;43703;51.060;-0.086;2023-02-15T12:17:17;100908.01;;;14.60;41.13
57885;BME280;43703;51.060;-0.086;2023-02-15T12:19:43;100900.34;;;13.16;43.84
57885;BME280;43703;51.060;-0.086;2023-02-15T12:22:18;100895.72;;;13.34;41.90
57885;BME280;43703;51.060;-0.086;2023-02-15T12:24:37;100892.57;;;15.72;40.46
57885;BME280;43703;51.060;-0.086;2023-02-15T12:27:01;100890.97;;;14.74;41.33
57885;BME280;43703;51.060;-0.086;2023-02-15T12:29:27;100894.39;;;14.55;40.96
57885;BME280;43703;51.060;-0.086;2023-02-15T12:31:51;100899.11;;;12.76;45.94
57885;BME280;43703;51.060;-0.086;2023-02-15T12:34:21;100899.78;;;13.17;45.69
57885;BME280;43703;51.060;-0.086;2023-02-15T12:36:43;100902.01;;;13.02;44.65
57885;BME280;43703;51.060;-0.086;2023-02-15T12:39:17;100903.20;;;13.95;43.73
57885;BME280;43703;51.060;-0.086;2023-02-15T12:41:31;100901.58;;;13.59;43.46
57885;BME280;43703;51.060;-0.086;2023-02-15T12:44:04;100901.10;;;11.97;46.34
57885;BME280;43703;51.060;-0.086;2023-02-15T12:46:24;100896.19;;;12.68;44.82
57885;BME280;43703;51.060;-0.086;2023-02-15T12:51:15;100886.67;;;13.33;43.71
57885;BME280;43703;51.060;-0.086;2023-02-15T12:53:39;100878.96;;;13.25;44.30
57885;BME280;43703;51.060;-0.086;2023-02-15T12:56:06;100870.71;;;12.37;46.22